Time;durP1;ratioP1;P1;durP2;ratioP2;P2;SDS_P1;SDS_P2;PMS_P1;PMS_P2;Temp;Humidity;BMP_temperature;BMP_pressure;BME280_temperature;BME280_humidity;BME280_pressure;Samples;Min_cycle;Max_cycle;Signal;HPM_P1;HPM_P2
2022/01/31 00:01:09;;;;;;;33.30;5.60;;;;;;;2.05;100.00;100800.59;7400454;19;20192;-51
2022/01/31 00:03:39;;;;;;;26.27;5.10;;;;;;;2.00;100.00;100787.53;7402538;19;20367;-54
2022/01/31 00:06:08;;;;;;;32.27;4.30;;;;;;;2.00;100.00;100785.84;7397357;19;20893;-46
2022/01/31 00:08:40;;;;;;;30.60;6.30;;;;;;;2.02;100.00;100775.78;7402236;19;20453;-52
2022/01/31 00:11:09;;;;;;;33.10;4.40;;;;;;;2.05;100.00;100775.16;7397892;19;20416;-49
2022/01/31 00:13:45;;;;;;;21.65;4.40;;;;;;;2.01;100.00;100779.97;7395903;19;20396;-45
2022/01/31 00:16:21;;;;;;;31.17;4.50;;;;;;;2.01;100.00;100764.72;7391215;19;20189;-45
2022/01/31 00:18:50;;;;;;;41.87;5.80;;;;;;;2.09;100.00;100752.56;7395803;19;20129;-46
2022/01/31 00:21:20;;;;;;;29.63;4.40;;;;;;;2.08;100.00;100740.63;7393839;19;20425;-47
2022/01/31 00:23:49;;;;;;;23.53;5.00;;;;;;;2.09;100.00;100719.47;7400031;19;20418;-47
2022/01/31 00:26:19;;;;;;;24.75;3.53;;;;;;;1.98;100.00;100703.41;7390101;19;20419;-50
2022/01/31 00:28:51;;;;;;;29.47;5.90;;;;;;;1.99;100.00;100702.63;7394779;19;20407;-47
2022/01/31 00:31:20;;;;;;;29.73;5.43;;;;;;;2.07;100.00;100692.13;7364761;19;20885;-45
2022/01/31 00:33:50;;;;;;;22.47;4.70;;;;;;;2.06;100.00;100686.19;7396550;19;20412;-44
2022/01/31 00:36:19;;;;;;;28.60;5.77;;;;;;;2.04;100.00;100686.84;7398638;19;20429;-48
2022/01/31 00:38:49;;;;;;;31.03;4.80;;;;;;;2.07;100.00;100677.75;7402439;19;20375;-50
2022/01/31 00:41:18;;;;;;;33.67;4.90;;;;;;;2.08;100.00;100676.09;7400871;19;20425;-51
2022/01/31 00:43:58;;;;;;;39.33;5.87;;;;;;;2.12;100.00;100660.28;7402962;19;20390;-49
2022/01/31 00:46:34;;;;;;;25.83;4.70;;;;;;;1.99;100.00;100649.19;7397047;19;20428;-47
2022/01/31 00:49:04;;;;;;;44.63;5.73;;;;;;;1.96;100.00;100627.72;7402719;19;20399;-47
2022/01/31 00:51:33;;;;;;;39.83;5.97;;;;;;;1.92;100.00;100616.41;7401097;19;20407;-45
2022/01/31 00:54:03;;;;;;;25.73;4.60;;;;;;;2.11;100.00;100599.97;7402403;19;20451;-46
2022/01/31 00:56:32;;;;;;;22.33;5.63;;;;;;;2.05;100.00;100592.75;7398689;19;20418;-49
2022/01/31 00:59:04;;;;;;;19.70;4.90;;;;;;;2.06;100.00;100588.56;7402760;19;20398;-44
2022/01/31 01:01:34;;;;;;;37.50;4.70;;;;;;;2.06;100.00;100586.00;7400871;19;20769;-46
2022/01/31 01:04:04;;;;;;;35.10;5.37;;;;;;;2.02;100.00;100575.59;7402946;19;20448;-47
2022/01/31 01:06:33;;;;;;;26.20;4.60;;;;;;;2.00;100.00;100564.41;7399910;19;20557;-47
2022/01/31 01:09:03;;;;;;;35.80;5.97;;;;;;;2.01;100.00;100556.00;7402792;19;20388;-47
2022/01/31 01:11:32;;;;;;;28.88;4.88;;;;;;;1.92;100.00;100539.19;7400230;19;20403;-46
2022/01/31 01:14:05;;;;;;;33.17;5.20;;;;;;;1.90;100.00;100528.91;7401713;19;20123;-49
2022/01/31 01:16:35;;;;;;;32.33;5.00;;;;;;;1.89;100.00;100522.03;7398228;19;20439;-47
2022/01/31 01:19:05;;;;;;;31.80;4.72;;;;;;;1.86;100.00;100512.50;7402544;19;20388;-46
2022/01/31 01:21:34;;;;;;;31.77;5.40;;;;;;;1.86;100.00;100507.41;7401264;19;20192;-46
2022/01/31 01:24:04;;;;;;;36.00;5.38;;;;;;;1.76;100.00;100499.91;7406429;19;20391;-46
2022/01/31 01:26:33;;;;;;;32.05;4.35;;;;;;;1.72;100.00;100487.72;7398164;19;20194;-44
2022/01/31 01:29:05;;;;;;;40.95;5.38;;;;;;;1.77;100.00;100472.78;7403415;19;20553;-46
2022/01/31 01:31:35;;;;;;;39.03;5.83;;;;;;;1.75;100.00;100457.44;7401791;19;20198;-51
2022/01/31 01:34:05;;;;;;;33.13;5.70;;;;;;;1.81;100.00;100446.81;7403739;19;20399;-50
2022/01/31 01:36:35;;;;;;;35.07;5.63;;;;;;;1.79;100.00;100435.66;7398987;19;20530;-47
2022/01/31 01:39:04;;;;;;;35.60;6.43;;;;;;;1.71;100.00;100438.53;7407051;19;20398;-47
2022/01/31 01:41:34;;;;;;;21.83;4.65;;;;;;;1.71;100.00;100427.44;7400732;19;20193;-46
2022/01/31 01:44:06;;;;;;;21.83;4.07;;;;;;;1.75;100.00;100404.88;7403018;19;20145;-47
2022/01/31 01:46:36;;;;;;;19.33;3.10;;;;;;;1.72;100.00;100404.69;7396041;19;20434;-45
2022/01/31 01:49:06;;;;;;;30.97;3.87;;;;;;;1.78;100.00;100395.72;7402900;19;20379;-44
2022/01/31 01:51:36;;;;;;;25.92;4.03;;;;;;;1.76;100.00;100400.69;7401360;19;20442;-46
2022/01/31 01:54:05;;;;;;;27.17;4.88;;;;;;;1.73;100.00;100403.91;7403342;19;20135;-44
2022/01/31 01:56:35;;;;;;;24.77;4.50;;;;;;;1.71;100.00;100396.94;7398135;19;20190;-48
2022/01/31 01:59:07;;;;;;;25.13;3.15;;;;;;;1.71;100.00;100386.75;7402159;19;20123;-45
2022/01/31 02:01:36;;;;;;;35.58;4.70;;;;;;;1.74;100.00;100385.31;7401642;19;20588;-50
2022/01/31 02:04:06;;;;;;;34.50;4.78;;;;;;;1.70;100.00;100378.22;7402242;19;20134;-46
2022/01/31 02:06:35;;;;;;;10.13;2.72;;;;;;;1.66;100.00;100377.91;7397957;19;20577;-46
2022/01/31 02:09:05;;;;;;;31.53;4.63;;;;;;;1.70;100.00;100370.59;7401815;19;20182;-47
2022/01/31 02:11:35;;;;;;;22.90;4.00;;;;;;;1.74;100.00;100364.97;7398833;19;20430;-48
2022/01/31 02:14:07;;;;;;;26.15;4.38;;;;;;;1.74;100.00;100354.78;7402029;19;20848;-48
2022/01/31 02:16:37;;;;;;;25.05;4.35;;;;;;;1.79;100.00;100344.06;7397929;19;20191;-46
2022/01/31 02:19:07;;;;;;;18.43;4.50;;;;;;;1.75;100.00;100338.75;7402083;19;20140;-48
2022/01/31 02:21:39;;;;;;;39.25;5.35;;;;;;;1.86;100.00;100323.34;7403142;19;20450;-48
2022/01/31 02:24:09;;;;;;;37.63;5.50;;;;;;;1.91;100.00;100318.59;7401919;19;20126;-49
2022/01/31 02:26:39;;;;;;;21.40;3.63;;;;;;;1.97;100.00;100314.81;7396842;19;20427;-49
2022/01/31 02:29:11;;;;;;;34.13;5.67;;;;;;;1.92;100.00;100303.44;7401323;19;20479;-48
2022/01/31 02:31:45;;;;;;;40.90;5.20;;;;;;;1.88;100.00;100309.06;7399928;19;20418;-53
2022/01/31 02:34:15;;;;;;;33.63;5.83;;;;;;;1.92;100.00;100295.78;7401120;19;20636;-47
2022/01/31 02:36:47;;;;;;;28.43;4.50;;;;;;;1.92;100.00;100295.78;7397501;19;20498;-47
2022/01/31 02:39:16;;;;;;;25.27;4.30;;;;;;;1.94;100.00;100286.59;7399874;19;20431;-48
2022/01/31 02:41:48;;;;;;;38.53;5.60;;;;;;;1.99;100.00;100287.81;7399321;19;20375;-47
2022/01/31 02:44:18;;;;;;;21.43;5.13;;;;;;;1.98;100.00;100293.66;7401537;19;20403;-44
2022/01/31 02:46:52;;;;;;;25.30;3.63;;;;;;;1.97;100.00;100286.81;7397022;19;20439;-46
2022/01/31 02:49:26;;;;;;;12.65;3.33;;;;;;;1.93;100.00;100282.28;7401154;19;20410;-45
2022/01/31 02:52:02;;;;;;;8.77;2.20;;;;;;;1.79;100.00;100283.00;7399491;19;20193;-50
2022/01/31 02:54:32;;;;;;;19.05;4.15;;;;;;;1.77;100.00;100264.19;7400092;19;20170;-52
2022/01/31 02:57:02;;;;;;;14.80;3.03;;;;;;;1.70;100.00;100263.75;7395979;19;20592;-49
2022/01/31 02:59:31;;;;;;;12.65;2.90;;;;;;;1.63;100.00;100259.03;7400944;19;20653;-46
2022/01/31 03:02:01;;;;;;;23.88;2.83;;;;;;;1.56;100.00;100244.13;7398925;19;20192;-52
2022/01/31 03:04:31;;;;;;;23.95;3.17;;;;;;;1.31;100.00;100232.22;7404076;19;20129;-44
2022/01/31 03:07:03;;;;;;;21.98;2.92;;;;;;;1.16;100.00;100232.91;7397016;19;20566;-50
2022/01/31 03:09:33;;;;;;;22.17;3.20;;;;;;;0.99;100.00;100219.00;7399679;19;20125;-48
2022/01/31 03:12:03;;;;;;;12.30;2.65;;;;;;;0.82;100.00;100200.00;7398285;19;20200;-52
2022/01/31 03:14:32;;;;;;;18.98;4.13;;;;;;;0.66;100.00;100176.03;7399561;19;20533;-52
2022/01/31 03:17:04;;;;;;;28.60;5.15;;;;;;;0.76;100.00;100153.84;7396548;19;20190;-52
2022/01/31 03:19:37;;;;;;;26.88;5.95;;;;;;;0.76;100.00;100136.06;7404039;19;20401;-50
2022/01/31 03:22:12;;;;;;;26.77;5.90;;;;;;;0.78;100.00;100121.84;7398273;19;20185;-47
2022/01/31 03:24:43;;;;;;;41.15;10.40;;;;;;;1.17;100.00;100092.34;7399237;19;20130;-45
2022/01/31 03:27:12;;;;;;;28.90;8.10;;;;;;;1.38;100.00;100079.34;7395867;19;20196;-50
2022/01/31 03:29:41;;;;;;;26.73;6.80;;;;;;;1.55;100.00;100071.97;7399955;19;20406;-49
2022/01/31 03:32:11;;;;;;;37.30;8.13;;;;;;;1.54;100.00;100065.13;7397701;19;20258;-46
2022/01/31 03:34:41;;;;;;;29.40;6.53;;;;;;;1.40;100.00;100048.94;7399126;19;20441;-46
2022/01/31 03:37:13;;;;;;;47.10;8.15;;;;;;;1.63;100.00;100030.13;7396049;19;20190;-45
2022/01/31 03:39:47;;;;;;;48.35;10.60;;;;;;;1.66;100.00;100014.19;7399801;19;20420;-47
2022/01/31 03:42:18;;;;;;;30.45;7.10;;;;;;;1.45;100.00;100007.78;7397621;19;20182;-45
2022/01/31 03:44:48;;;;;;;41.17;10.03;;;;;;;1.61;100.00;99993.56;7400545;19;20409;-46
2022/01/31 03:47:20;;;;;;;27.52;5.68;;;;;;;1.70;100.00;99973.78;7395203;19;20514;-45
2022/01/31 03:49:50;;;;;;;43.78;7.55;;;;;;;1.45;100.00;99977.28;7399290;19;20195;-47
2022/01/31 03:52:22;;;;;;;23.50;6.70;;;;;;;1.43;100.00;99966.13;7399426;19;20186;-49
2022/01/31 03:54:55;;;;;;;31.83;5.03;;;;;;;1.39;100.00;99955.66;7397918;19;20415;-45
2022/01/31 03:57:25;;;;;;;37.00;6.65;;;;;;;1.73;100.00;99960.38;7400057;19;20245;-49
2022/01/31 03:59:54;;;;;;;20.40;5.00;;;;;;;1.66;100.00;99942.97;7399482;19;20178;-48
2022/01/31 04:02:23;;;;;;;36.28;6.75;;;;;;;1.74;100.00;99929.09;7396957;19;20183;-51
2022/01/31 04:04:53;;;;;;;27.47;6.43;;;;;;;1.56;100.00;99921.16;7397987;19;20129;-48
2022/01/31 04:07:25;;;;;;;44.80;14.93;;;;;;;1.49;100.00;99909.72;7394041;19;20407;-53
2022/01/31 04:09:55;;;;;;;52.75;9.50;;;;;;;1.53;100.00;99903.19;7397554;19;20396;-46
2022/01/31 04:12:25;;;;;;;49.37;12.80;;;;;;;1.60;100.00;99877.34;7396829;19;20186;-47
2022/01/31 04:14:54;;;;;;;42.30;11.03;;;;;;;1.51;100.00;99884.38;7397436;19;20394;-50
2022/01/31 04:17:25;;;;;;;45.80;12.60;;;;;;;1.60;100.00;99872.28;7394557;19;20410;-46
2022/01/31 04:19:55;;;;;;;37.87;10.13;;;;;;;1.53;100.00;99855.72;7398505;19;20459;-45
2022/01/31 04:22:30;;;;;;;41.73;6.97;;;;;;;1.51;100.00;99851.31;7396574;19;20407;-48
2022/01/31 04:25:03;;;;;;;47.60;10.60;;;;;;;1.59;100.00;99828.16;7397483;19;20395;-50
2022/01/31 04:27:44;;;;;;;36.42;9.40;;;;;;;1.57;100.00;99823.75;7395630;19;20183;-46
2022/01/31 04:30:15;;;;;;;34.55;6.43;;;;;;;1.47;100.00;99817.19;7398649;19;20130;-47
2022/01/31 04:32:45;;;;;;;40.08;5.55;;;;;;;1.44;100.00;99817.88;7397882;19;20127;-50
2022/01/31 04:35:15;;;;;;;57.17;6.75;;;;;;;1.40;100.00;99807.44;7395789;19;20130;-48
2022/01/31 04:37:47;;;;;;;44.37;6.70;;;;;;;1.40;100.00;99789.63;7398007;19;20201;-52
2022/01/31 04:40:17;;;;;;;36.07;6.13;;;;;;;1.40;100.00;99782.00;7396621;19;20391;-52
2022/01/31 04:42:46;;;;;;;37.53;6.07;;;;;;;1.31;100.00;99775.56;7397453;19;20665;-52
2022/01/31 04:45:16;;;;;;;34.07;5.97;;;;;;;1.28;100.00;99755.03;7395023;19;20196;-45
2022/01/31 04:47:45;;;;;;;29.70;5.67;;;;;;;1.29;100.00;99751.69;7396496;19;20429;-52
2022/01/31 04:50:15;;;;;;;27.65;5.35;;;;;;;1.42;100.00;99752.47;7396146;19;20392;-47
2022/01/31 04:52:47;;;;;;;34.80;5.30;;;;;;;1.36;100.00;99747.91;7397933;19;20119;-45
2022/01/31 04:55:17;;;;;;;21.25;5.43;;;;;;;1.47;100.00;99735.84;7397059;19;20131;-46
2022/01/31 04:57:46;;;;;;;34.42;6.40;;;;;;;1.39;100.00;99730.28;7397343;19;20438;-44
2022/01/31 05:00:16;;;;;;;29.48;5.57;;;;;;;1.33;100.00;99728.25;7395144;19;20119;-48
2022/01/31 05:02:46;;;;;;;32.03;5.43;;;;;;;1.37;100.00;99729.31;7397240;19;20127;-50
2022/01/31 05:05:16;;;;;;;30.83;5.47;;;;;;;1.46;100.00;99719.72;7394614;19;20119;-46
2022/01/31 05:07:49;;;;;;;30.50;5.60;;;;;;;1.41;100.00;99715.13;7395997;19;20127;-44
2022/01/31 05:10:18;;;;;;;30.80;6.23;;;;;;;1.44;100.00;99707.69;7395454;19;20136;-47
2022/01/31 05:12:48;;;;;;;29.73;5.90;;;;;;;1.50;100.00;99705.53;7397495;19;20673;-45
2022/01/31 05:15:17;;;;;;;33.88;5.30;;;;;;;1.50;100.00;99709.72;7394389;19;20129;-50
2022/01/31 05:17:46;;;;;;;27.00;6.22;;;;;;;1.39;100.00;99696.38;7396719;19;20532;-47
2022/01/31 05:20:16;;;;;;;31.88;6.97;;;;;;;1.40;100.00;99688.84;7398835;19;20123;-48
2022/01/31 05:22:48;;;;;;;27.02;6.07;;;;;;;1.46;100.00;99686.69;7403902;19;20125;-49
2022/01/31 05:25:18;;;;;;;29.45;6.65;;;;;;;1.44;100.00;99684.81;7401571;19;20130;-50
2022/01/31 05:27:47;;;;;;;23.70;6.70;;;;;;;1.48;100.00;99682.56;7405381;19;20123;-47
2022/01/31 05:30:17;;;;;;;27.45;5.30;;;;;;;1.50;100.00;99680.13;7402399;19;20388;-48
2022/01/31 05:32:46;;;;;;;24.60;6.32;;;;;;;1.52;100.00;99673.44;7403356;19;20135;-52
2022/01/31 05:35:16;;;;;;;27.33;5.85;;;;;;;1.53;100.00;99669.25;7400835;19;20123;-52
2022/01/31 05:37:48;;;;;;;24.95;4.97;;;;;;;1.52;100.00;99668.38;7403420;19;20134;-46
2022/01/31 05:40:17;;;;;;;22.95;5.70;;;;;;;1.35;100.00;99674.97;7402107;19;20532;-51
2022/01/31 05:42:47;;;;;;;31.80;6.20;;;;;;;1.39;100.00;99666.72;7403303;19;20115;-50
2022/01/31 05:45:16;;;;;;;31.60;5.30;;;;;;;1.38;100.00;99652.25;7401505;19;20131;-51
2022/01/31 05:47:46;;;;;;;26.63;5.37;;;;;;;1.47;100.00;99660.47;7402537;19;20134;-50
2022/01/31 05:50:16;;;;;;;25.77;5.30;;;;;;;1.51;100.00;99658.09;7403042;19;20392;-46
2022/01/31 05:52:48;;;;;;;24.60;5.80;;;;;;;1.39;100.00;99661.63;7407256;19;20178;-49
2022/01/31 05:55:17;;;;;;;28.00;4.28;;;;;;;1.41;100.00;99655.00;7400467;19;20127;-48
2022/01/31 05:57:47;;;;;;;35.50;5.00;;;;;;;1.39;100.00;99656.56;7402665;19;20119;-44
2022/01/31 06:00:22;;;;;;;28.45;5.50;;;;;;;1.50;100.00;99648.72;7401431;19;20127;-49
2022/01/31 06:02:57;;;;;;;27.13;4.95;;;;;;;1.51;100.00;99655.56;7402636;19;20521;-46
2022/01/31 06:05:27;;;;;;;25.23;6.43;;;;;;;1.57;100.00;99645.75;7399758;19;20186;-45
2022/01/31 06:07:59;;;;;;;28.75;6.93;;;;;;;1.35;100.00;99640.25;7402244;19;20414;-49
2022/01/31 06:10:29;;;;;;;28.58;6.68;;;;;;;1.40;100.00;99634.56;7400426;19;20207;-47
2022/01/31 06:12:59;;;;;;;34.47;6.10;;;;;;;1.37;100.00;99627.63;7402214;19;20521;-48
2022/01/31 06:15:28;;;;;;;38.72;8.13;;;;;;;1.21;100.00;99631.78;7399134;19;20178;-49
2022/01/31 06:17:58;;;;;;;38.83;6.25;;;;;;;1.28;100.00;99627.09;7402236;19;20209;-48
2022/01/31 06:20:29;;;;;;;33.90;5.25;;;;;;;1.32;100.00;99618.84;7399671;19;20843;-52
2022/01/31 06:23:02;;;;;;;22.95;5.45;;;;;;;1.18;100.00;99620.56;7402064;19;20119;-52
2022/01/31 06:25:31;;;;;;;23.38;5.35;;;;;;;1.16;100.00;99623.00;7398725;19;20204;-47
2022/01/31 06:28:01;;;;;;;34.70;6.05;;;;;;;1.17;100.00;99614.59;7401247;19;20179;-49
2022/01/31 06:30:31;;;;;;;34.22;5.95;;;;;;;1.12;100.00;99610.88;7399821;19;20707;-50
2022/01/31 06:33:00;;;;;;;23.70;6.13;;;;;;;1.21;100.00;99611.47;7400474;19;20125;-46
2022/01/31 06:35:32;;;;;;;23.13;5.03;;;;;;;1.17;100.00;99603.53;7398526;19;20190;-46
2022/01/31 06:38:05;;;;;;;38.33;6.40;;;;;;;1.21;100.00;99597.88;7401530;19;20123;-45
2022/01/31 06:40:34;;;;;;;44.63;7.32;;;;;;;1.13;100.00;99597.41;7399814;19;20524;-46
2022/01/31 06:43:03;;;;;;;26.55;6.00;;;;;;;1.15;100.00;99588.22;7401234;19;20123;-46
2022/01/31 06:45:33;;;;;;;43.17;7.10;;;;;;;1.20;100.00;99591.03;7398430;19;20190;-46
2022/01/31 06:48:07;;;;;;;41.60;7.07;;;;;;;1.14;100.00;99588.13;7400986;19;20186;-48
2022/01/31 06:50:37;;;;;;;26.67;6.18;;;;;;;1.06;100.00;99587.66;7399546;19;20187;-50
2022/01/31 06:53:11;;;;;;;38.03;6.82;;;;;;;1.07;100.00;99581.78;7400850;19;20190;-48
2022/01/31 06:55:41;;;;;;;47.33;6.55;;;;;;;1.16;100.00;99577.28;7397710;19;20553;-47
2022/01/31 06:58:10;;;;;;;39.28;6.60;;;;;;;1.09;100.00;99580.22;7405328;19;20397;-48
2022/01/31 07:00:40;;;;;;;25.80;5.60;;;;;;;0.96;100.00;99570.97;7399757;19;20189;-48
2022/01/31 07:03:12;;;;;;;36.88;7.05;;;;;;;0.97;100.00;99561.69;7400304;19;20129;-45
2022/01/31 07:05:42;;;;;;;42.58;6.55;;;;;;;0.95;100.00;99559.06;7397437;19;20194;-46
2022/01/31 07:08:17;;;;;;;33.58;6.35;;;;;;;0.94;100.00;99559.84;7400918;19;20133;-47
2022/01/31 07:10:51;;;;;;;48.33;9.60;;;;;;;0.80;100.00;99559.88;7398485;19;20479;-46
2022/01/31 07:13:38;;;;;;;41.70;7.07;;;;;;;0.88;100.00;99557.78;7400071;19;20115;-46
2022/01/31 07:16:08;;;;;;;43.58;6.75;;;;;;;1.00;100.00;99550.06;7397491;19;20194;-46
2022/01/31 07:18:38;;;;;;;36.25;6.95;;;;;;;0.97;100.00;99554.06;7400121;19;20119;-47
2022/01/31 07:21:12;;;;;;;30.92;6.85;;;;;;;0.91;100.00;99540.22;7398429;19;20573;-48
2022/01/31 07:24:16;;;;;;;34.22;7.43;;;;;;;0.78;100.00;99537.72;7400185;19;20759;-48
2022/01/31 07:26:43;;;;;;;34.25;7.70;;;;;;;0.75;100.00;99540.03;7395848;19;20196;-46
2022/01/31 07:29:13;;;;;;;28.80;6.93;;;;;;;0.74;100.00;99531.56;7398638;19;20127;-50
2022/01/31 07:31:44;;;;;;;29.88;6.50;;;;;;;0.72;100.00;99524.63;7400068;19;20217;-49
2022/01/31 07:34:15;;;;;;;51.53;7.90;;;;;;;0.65;100.00;99524.25;7399753;19;20180;-48
2022/01/31 07:36:45;;;;;;;42.67;7.32;;;;;;;0.64;100.00;99535.19;7395901;19;20196;-47
2022/01/31 07:39:18;;;;;;;40.72;7.00;;;;;;;0.59;100.00;99521.34;7399312;19;20171;-50
2022/01/31 07:41:49;;;;;;;46.13;6.30;;;;;;;0.57;100.00;99524.56;7397683;19;20186;-50
2022/01/31 07:44:20;;;;;;;20.65;5.43;;;;;;;0.54;100.00;99512.56;7397371;19;20147;-45
2022/01/31 07:46:52;;;;;;;32.60;6.22;;;;;;;0.52;100.00;99502.28;7395474;19;20591;-47
2022/01/31 07:49:22;;;;;;;33.75;8.02;;;;;;;0.43;100.00;99503.38;7400799;19;20172;-50
2022/01/31 07:51:54;;;;;;;37.83;7.13;;;;;;;0.47;100.00;99510.41;7400301;19;20185;-51
2022/01/31 07:54:29;;;;;;;33.05;7.65;;;;;;;0.45;100.00;99496.78;7398979;19;20131;-49
2022/01/31 07:56:59;;;;;;;32.17;6.68;;;;;;;0.49;100.00;99501.22;7397422;19;20190;-50
2022/01/31 07:59:48;;;;;;;38.22;6.97;;;;;;;0.44;100.00;99492.44;7400999;19;20531;-49
2022/01/31 08:02:18;;;;;;;32.05;8.38;;;;;;;0.45;100.00;99486.63;7397107;19;20186;-46
2022/01/31 08:04:48;;;;;;;31.25;7.15;;;;;;;0.50;100.00;99486.09;7400865;19;20138;-44
2022/01/31 08:07:17;;;;;;;34.70;7.07;;;;;;;0.51;100.00;99484.47;7394888;19;20593;-47
2022/01/31 08:09:49;;;;;;;41.05;7.50;;;;;;;0.52;100.00;99476.91;7397817;19;20549;-47
2022/01/31 08:12:19;;;;;;;49.88;8.10;;;;;;;0.47;100.00;99483.34;7397389;19;20182;-44
2022/01/31 08:14:48;;;;;;;41.90;8.00;;;;;;;0.39;100.00;99482.00;7399590;19;20119;-45
2022/01/31 08:17:18;;;;;;;30.70;7.00;;;;;;;0.44;100.00;99485.72;7394876;19;20252;-47
2022/01/31 08:19:47;;;;;;;34.40;6.65;;;;;;;0.49;100.00;99484.34;7397532;19;20119;-47
2022/01/31 08:22:17;;;;;;;33.63;6.95;;;;;;;0.48;100.00;99484.25;7396524;19;20197;-46
2022/01/31 08:24:49;;;;;;;34.97;6.80;;;;;;;0.51;100.00;99489.53;7397374;19;20384;-45
2022/01/31 08:27:19;;;;;;;37.08;7.07;;;;;;;0.52;100.00;99491.28;7393622;19;20194;-54
2022/01/31 08:29:49;;;;;;;30.67;7.00;;;;;;;0.59;100.00;99484.91;7399039;19;20135;-49
2022/01/31 08:32:32;;;;;;;25.95;6.60;;;;;;;0.56;100.00;99480.50;7396329;19;20592;-45
2022/01/31 08:37:44;;;;;;;39.33;8.52;;;;;;;0.51;100.00;99467.53;7397592;19;20234;-46
2022/01/31 08:40:17;;;;;;;28.25;7.05;;;;;;;0.62;100.00;99475.81;7395899;19;20479;-49
2022/01/31 08:42:48;;;;;;;48.67;9.52;;;;;;;0.71;100.00;99472.09;7397801;19;20119;-46
2022/01/31 08:45:17;;;;;;;41.78;6.90;;;;;;;0.72;100.00;99471.31;7395035;19;20127;-45
2022/01/31 08:47:47;;;;;;;31.98;8.02;;;;;;;0.70;100.00;99467.78;7397251;19;20137;-44
2022/01/31 08:50:16;;;;;;;31.73;7.20;;;;;;;0.72;100.00;99468.78;7395024;19;20135;-44
2022/01/31 08:52:46;;;;;;;33.53;6.90;;;;;;;0.66;100.00;99467.59;7397223;19;20126;-44
2022/01/31 08:55:20;;;;;;;19.45;5.75;;;;;;;0.64;100.00;99476.81;7398467;19;20124;-47
2022/01/31 08:57:53;;;;;;;32.58;6.50;;;;;;;0.70;100.00;99486.44;7408985;19;20126;-44
2022/01/31 09:00:32;;;;;;;33.65;7.32;;;;;;;0.76;100.00;99486.81;7403223;19;20206;-47
2022/01/31 09:03:17;;;;;;;29.30;6.07;;;;;;;0.71;100.00;99488.19;7404620;19;20131;-46
2022/01/31 09:05:47;;;;;;;41.70;7.30;;;;;;;0.75;100.00;99481.63;7401050;19;20194;-46
2022/01/31 09:08:16;;;;;;;25.77;6.28;;;;;;;0.77;100.00;99480.09;7404544;19;20202;-45
2022/01/31 09:10:49;;;;;;;33.70;7.18;;;;;;;0.76;100.00;99484.28;7401139;19;20186;-45
2022/01/31 09:13:19;;;;;;;28.90;6.82;;;;;;;0.79;100.00;99487.03;7407052;19;20131;-48
2022/01/31 09:15:49;;;;;;;38.35;8.38;;;;;;;0.79;100.00;99484.47;7400811;19;20194;-49
2022/01/31 09:18:18;;;;;;;26.88;6.60;;;;;;;0.81;100.00;99482.00;7404285;19;20118;-50
2022/01/31 09:20:48;;;;;;;32.67;6.55;;;;;;;0.77;100.00;99487.72;7401597;19;20262;-45
2022/01/31 09:23:18;;;;;;;26.58;8.90;;;;;;;0.82;100.00;99477.81;7403545;19;20127;-48
2022/01/31 09:25:50;;;;;;;35.22;8.20;;;;;;;0.81;100.00;99489.63;7400451;19;20253;-48
2022/01/31 09:28:20;;;;;;;34.13;7.43;;;;;;;0.77;100.00;99487.72;7403694;19;20133;-47
2022/01/31 09:30:52;;;;;;;28.27;6.30;;;;;;;0.80;100.00;99495.50;7401369;19;20186;-49
2022/01/31 09:33:26;;;;;;;31.30;7.22;;;;;;;0.81;100.00;99494.72;7403155;19;20510;-47
2022/01/31 09:35:56;;;;;;;41.05;8.27;;;;;;;0.83;100.00;99498.25;7370139;19;20213;-45
2022/01/31 09:38:25;;;;;;;29.80;8.85;;;;;;;0.77;100.00;99496.19;7402374;19;20119;-45
2022/01/31 09:40:57;;;;;;;40.05;14.68;;;;;;;0.86;100.00;99500.94;7403619;19;20194;-44
2022/01/31 09:43:52;;;;;;;25.88;7.30;;;;;;;0.87;100.00;99510.31;7407090;19;20195;-45
2022/01/31 09:49:02;;;;;;;37.00;7.75;;;;;;;0.99;100.00;99511.84;7404373;19;20458;-49
2022/01/31 09:51:31;;;;;;;26.05;7.90;;;;;;;1.11;100.00;99515.13;7400415;19;20191;-49
2022/01/31 09:54:02;;;;;;;20.98;6.53;;;;;;;1.14;100.00;99520.41;7401155;19;20123;-46
2022/01/31 09:56:37;;;;;;;28.35;7.55;;;;;;;1.15;100.00;99527.25;7397118;19;20589;-46
2022/01/31 09:59:08;;;;;;;29.98;6.97;;;;;;;1.17;100.00;99534.94;7402368;19;20125;-48
2022/01/31 10:01:42;;;;;;;28.67;6.70;;;;;;;1.27;100.00;99532.16;7400281;19;20186;-50
2022/01/31 10:04:17;;;;;;;30.07;7.33;;;;;;;1.32;100.00;99530.78;7401791;19;20419;-46
2022/01/31 10:06:49;;;;;;;36.38;7.20;;;;;;;1.38;100.00;99524.31;7395199;19;20415;-47
2022/01/31 10:09:21;;;;;;;24.43;6.57;;;;;;;1.42;100.00;99516.94;7401646;19;20127;-50
2022/01/31 10:11:57;;;;;;;19.80;6.90;;;;;;;1.42;100.00;99519.47;7399054;19;20395;-50
2022/01/31 10:17:13;;;;;;;30.67;10.98;;;;;;;1.39;100.00;99519.28;7397538;19;20407;-50
2022/01/31 10:19:53;;;;;;;33.90;7.63;;;;;;;1.39;100.00;99524.38;7405423;19;20148;-47
2022/01/31 10:22:23;;;;;;;35.83;7.53;;;;;;;1.41;100.00;99532.09;7398659;19;20394;-47
2022/01/31 10:24:55;;;;;;;24.13;7.00;;;;;;;1.43;100.00;99535.63;7401976;19;20127;-47
2022/01/31 10:27:29;;;;;;;20.20;6.20;;;;;;;1.42;100.00;99544.91;7397225;19;20491;-45
2022/01/31 10:30:12;;;;;;;22.60;6.90;;;;;;;1.53;100.00;99552.28;7401293;19;20139;-45
2022/01/31 10:32:45;;;;;;;24.77;8.07;;;;;;;1.64;100.00;99561.41;7400283;19;20685;-50
2022/01/31 10:35:15;;;;;;;20.10;6.60;;;;;;;1.67;100.00;99556.50;7398761;19;20363;-48
2022/01/31 10:37:45;;;;;;;21.87;7.33;;;;;;;1.74;100.00;99561.16;7400550;19;20387;-47
2022/01/31 10:46:07;;;;;;;16.77;7.53;;;;;;;1.70;100.00;99592.28;7394298;19;20415;-45
2022/01/31 10:57:06;;;;;;;18.63;7.00;;;;;;;1.87;100.00;99602.56;7396755;19;20484;-48
2022/01/31 10:59:44;;;;;;;19.60;6.73;;;;;;;1.89;100.00;99609.50;7401199;19;20398;-50
2022/01/31 11:02:18;;;;;;;19.87;6.93;;;;;;;1.92;100.00;99613.91;7399172;19;20434;-50
2022/01/31 11:04:49;;;;;;;18.70;6.80;;;;;;;1.94;100.00;99612.31;7399994;19;20376;-51
2022/01/31 11:07:20;;;;;;;15.43;6.50;;;;;;;2.01;100.00;99613.56;7398392;19;20422;-46
2022/01/31 11:09:51;;;;;;;17.53;8.13;;;;;;;1.94;100.00;99626.72;7400404;19;20370;-48
2022/01/31 11:12:23;;;;;;;25.13;10.17;;;;;;;1.95;100.00;99618.28;7396618;19;20493;-47
2022/01/31 11:14:56;;;;;;;15.80;6.20;;;;;;;1.93;100.00;99636.00;7399592;19;20830;-46
2022/01/31 11:17:27;;;;;;;17.80;5.67;;;;;;;1.88;100.00;99637.41;7394965;19;20422;-44
2022/01/31 11:20:00;;;;;;;19.50;7.00;;;;;;;1.92;100.00;99641.88;7402256;19;20886;-45
2022/01/31 11:22:36;;;;;;;26.00;10.53;;;;;;;1.98;100.00;99639.69;7397593;19;20412;-46
2022/01/31 11:25:17;;;;;;;23.30;8.17;;;;;;;1.97;100.00;99637.94;7396733;19;20374;-45
2022/01/31 11:27:54;;;;;;;16.07;7.40;;;;;;;1.95;100.00;99648.81;7400202;19;20435;-46
2022/01/31 11:30:26;;;;;;;28.27;10.23;;;;;;;1.95;100.00;99647.13;7401501;19;20712;-45
2022/01/31 11:32:56;;;;;;;41.33;17.60;;;;;;;1.96;100.00;99648.03;7401610;19;20405;-48
2022/01/31 11:35:26;;;;;;;26.90;11.50;;;;;;;1.94;100.00;99658.09;7396616;19;20403;-47
2022/01/31 11:37:56;;;;;;;17.57;6.40;;;;;;;1.96;100.00;99659.09;7399483;19;20413;-45
2022/01/31 11:40:25;;;;;;;20.43;9.17;;;;;;;1.95;100.00;99664.94;7398142;19;20474;-48
2022/01/31 11:42:55;;;;;;;18.57;8.40;;;;;;;2.00;100.00;99662.69;7403282;19;20987;-46
2022/01/31 11:45:31;;;;;;;20.40;8.07;;;;;;;1.91;100.00;99662.16;7399250;19;20419;-48
2022/01/31 11:48:06;;;;;;;17.83;6.93;;;;;;;1.92;100.00;99674.97;7399083;19;20394;-47
2022/01/31 11:50:44;;;;;;;15.40;6.90;;;;;;;2.01;100.00;99695.00;7399006;19;20421;-46
2022/01/31 11:53:14;;;;;;;18.23;7.00;;;;;;;2.05;100.00;99702.00;7400092;19;20833;-47
2022/01/31 11:55:44;;;;;;;18.67;7.77;;;;;;;1.94;100.00;99706.44;7395725;19;20491;-46
2022/01/31 11:58:17;;;;;;;19.77;8.97;;;;;;;1.97;100.00;99709.19;7398880;19;20644;-48
2022/01/31 12:00:50;;;;;;;110.13;50.77;;;;;;;2.02;100.00;99706.91;7396783;19;20434;-47
2022/01/31 12:03:20;;;;;;;26.97;13.50;;;;;;;2.01;100.00;99711.13;7398505;19;20390;-54